Cadiz, Ohio
Current Conditions -  °F | °C
As of 1:53 PM on Friday 21 Nov 2014 (Local Time) from KHLG Reporting Station
Clear Clear  
Wind Chill: 23°   Ceiling: Unl
Heat Index: 28°   Visibility: 10mi
Dew Point:   Wind: 5mph
Humidity: 43%   Direction: NA
Pressure: 30.45"   Gusts: NA
Location:  40.27°N, 81°W
Report Text: KHLG 211853Z VRB04KT 10SM CLR M02/M13 A3045 RMK AO2 SLP331 T10221133
Loading
Personal Weather Stations






























Interactive Weather Map New forecast layout! Learn more

10-Day Weather Forecast

Advertisements
Track Severe Weather on mobile